sensor_id;sensor_type;location;lat;lon;timestamp;P1;durP1;ratioP1;P2;durP2;ratioP2
7473;SDS011;3778;42.572;23.426;2024-02-26T00:01:56;9.70;;;4.25;;
7473;SDS011;3778;42.572;23.426;2024-02-26T00:04:22;7.72;;;4.63;;
7473;SDS011;3778;42.572;23.426;2024-02-26T00:06:47;10.13;;;5.07;;
7473;SDS011;3778;42.572;23.426;2024-02-26T00:09:15;9.60;;;4.70;;
7473;SDS011;3778;42.572;23.426;2024-02-26T00:11:41;5.60;;;3.17;;
7473;SDS011;3778;42.572;23.426;2024-02-26T00:14:06;9.45;;;3.78;;
7473;SDS011;3778;42.572;23.426;2024-02-26T00:16:31;8.68;;;4.18;;
7473;SDS011;3778;42.572;23.426;2024-02-26T00:18:57;10.13;;;5.13;;
7473;SDS011;3778;42.572;23.426;2024-02-26T00:21:22;14.63;;;5.60;;
7473;SDS011;3778;42.572;23.426;2024-02-26T00:23:52;11.32;;;5.35;;
7473;SDS011;3778;42.572;23.426;2024-02-26T00:26:18;9.68;;;4.75;;
7473;SDS011;3778;42.572;23.426;2024-02-26T00:28:43;5.25;;;3.17;;
7473;SDS011;3778;42.572;23.426;2024-02-26T00:31:09;9.15;;;4.88;;
7473;SDS011;3778;42.572;23.426;2024-02-26T00:33:34;10.70;;;5.05;;
7473;SDS011;3778;42.572;23.426;2024-02-26T00:35:59;9.68;;;4.80;;
7473;SDS011;3778;42.572;23.426;2024-02-26T00:38:25;7.13;;;4.15;;
7473;SDS011;3778;42.572;23.426;2024-02-26T00:40:50;8.18;;;4.28;;
7473;SDS011;3778;42.572;23.426;2024-02-26T00:43:15;10.32;;;5.05;;
7473;SDS011;3778;42.572;23.426;2024-02-26T00:45:41;5.28;;;4.05;;
7473;SDS011;3778;42.572;23.426;2024-02-26T00:48:06;10.90;;;5.88;;
7473;SDS011;3778;42.572;23.426;2024-02-26T00:50:32;9.63;;;4.78;;
7473;SDS011;3778;42.572;23.426;2024-02-26T00:53:01;9.48;;;5.50;;
7473;SDS011;3778;42.572;23.426;2024-02-26T00:55:27;9.77;;;5.22;;
7473;SDS011;3778;42.572;23.426;2024-02-26T00:57:52;10.60;;;6.60;;
7473;SDS011;3778;42.572;23.426;2024-02-26T01:00:18;7.10;;;3.53;;
7473;SDS011;3778;42.572;23.426;2024-02-26T01:02:43;9.18;;;4.13;;
7473;SDS011;3778;42.572;23.426;2024-02-26T01:05:11;9.05;;;5.20;;
7473;SDS011;3778;42.572;23.426;2024-02-26T01:07:37;10.73;;;5.75;;
7473;SDS011;3778;42.572;23.426;2024-02-26T01:10:04;11.20;;;5.22;;
7473;SDS011;3778;42.572;23.426;2024-02-26T01:12:31;9.38;;;5.30;;
7473;SDS011;3778;42.572;23.426;2024-02-26T01:14:57;10.95;;;5.82;;
7473;SDS011;3778;42.572;23.426;2024-02-26T01:17:22;7.50;;;5.15;;
7473;SDS011;3778;42.572;23.426;2024-02-26T01:19:48;10.65;;;5.82;;
7473;SDS011;3778;42.572;23.426;2024-02-26T01:22:13;8.98;;;4.38;;
7473;SDS011;3778;42.572;23.426;2024-02-26T01:24:38;8.93;;;5.30;;
7473;SDS011;3778;42.572;23.426;2024-02-26T01:27:04;6.97;;;3.88;;
7473;SDS011;3778;42.572;23.426;2024-02-26T01:29:29;8.02;;;4.35;;
7473;SDS011;3778;42.572;23.426;2024-02-26T01:31:55;7.25;;;4.07;;
7473;SDS011;3778;42.572;23.426;2024-02-26T01:34:21;8.15;;;4.55;;
7473;SDS011;3778;42.572;23.426;2024-02-26T01:36:46;8.40;;;4.75;;
7473;SDS011;3778;42.572;23.426;2024-02-26T01:39:12;5.50;;;3.13;;
7473;SDS011;3778;42.572;23.426;2024-02-26T01:41:40;8.82;;;4.13;;
7473;SDS011;3778;42.572;23.426;2024-02-26T01:44:06;8.38;;;5.40;;
7473;SDS011;3778;42.572;23.426;2024-02-26T01:46:32;11.98;;;5.80;;
7473;SDS011;3778;42.572;23.426;2024-02-26T01:48:59;9.65;;;5.68;;
7473;SDS011;3778;42.572;23.426;2024-02-26T01:51:25;10.48;;;6.28;;
7473;SDS011;3778;42.572;23.426;2024-02-26T01:53:51;11.93;;;6.18;;
7473;SDS011;3778;42.572;23.426;2024-02-26T01:56:16;11.57;;;5.90;;
7473;SDS011;3778;42.572;23.426;2024-02-26T01:58:43;11.25;;;6.50;;
7473;SDS011;3778;42.572;23.426;2024-02-26T02:01:09;10.55;;;5.82;;
7473;SDS011;3778;42.572;23.426;2024-02-26T02:03:35;13.30;;;6.38;;
7473;SDS011;3778;42.572;23.426;2024-02-26T02:06:01;7.85;;;4.68;;
7473;SDS011;3778;42.572;23.426;2024-02-26T02:08:27;9.18;;;5.15;;
7473;SDS011;3778;42.572;23.426;2024-02-26T02:10:53;13.38;;;6.25;;
7473;SDS011;3778;42.572;23.426;2024-02-26T02:13:18;8.23;;;4.10;;
7473;SDS011;3778;42.572;23.426;2024-02-26T02:15:43;11.88;;;5.93;;
7473;SDS011;3778;42.572;23.426;2024-02-26T02:18:09;8.63;;;5.57;;
7473;SDS011;3778;42.572;23.426;2024-02-26T02:20:34;9.35;;;5.97;;
7473;SDS011;3778;42.572;23.426;2024-02-26T02:23:00;12.27;;;5.82;;
7473;SDS011;3778;42.572;23.426;2024-02-26T02:25:26;12.07;;;6.68;;
7473;SDS011;3778;42.572;23.426;2024-02-26T02:27:52;14.75;;;7.68;;
7473;SDS011;3778;42.572;23.426;2024-02-26T02:30:19;9.80;;;5.72;;
7473;SDS011;3778;42.572;23.426;2024-02-26T02:32:46;10.27;;;7.00;;
7473;SDS011;3778;42.572;23.426;2024-02-26T02:35:12;11.80;;;6.57;;
7473;SDS011;3778;42.572;23.426;2024-02-26T02:37:37;14.82;;;6.55;;
7473;SDS011;3778;42.572;23.426;2024-02-26T02:40:02;13.70;;;6.35;;
7473;SDS011;3778;42.572;23.426;2024-02-26T02:42:28;12.75;;;5.70;;
7473;SDS011;3778;42.572;23.426;2024-02-26T02:44:53;10.70;;;6.00;;
7473;SDS011;3778;42.572;23.426;2024-02-26T02:47:19;12.98;;;6.00;;
7473;SDS011;3778;42.572;23.426;2024-02-26T02:49:44;10.98;;;6.78;;
7473;SDS011;3778;42.572;23.426;2024-02-26T02:52:10;17.33;;;6.10;;
7473;SDS011;3778;42.572;23.426;2024-02-26T02:54:35;10.00;;;5.93;;
7473;SDS011;3778;42.572;23.426;2024-02-26T02:57:03;9.77;;;5.82;;
7473;SDS011;3778;42.572;23.426;2024-02-26T02:59:28;13.80;;;6.72;;
7473;SDS011;3778;42.572;23.426;2024-02-26T03:01:54;8.15;;;5.05;;
7473;SDS011;3778;42.572;23.426;2024-02-26T03:04:19;13.43;;;6.70;;
7473;SDS011;3778;42.572;23.426;2024-02-26T03:06:44;12.40;;;6.43;;
7473;SDS011;3778;42.572;23.426;2024-02-26T03:09:10;17.58;;;7.50;;
7473;SDS011;3778;42.572;23.426;2024-02-26T03:11:35;11.20;;;6.35;;
7473;SDS011;3778;42.572;23.426;2024-02-26T03:14:01;13.15;;;6.25;;
7473;SDS011;3778;42.572;23.426;2024-02-26T03:16:26;10.95;;;5.75;;
7473;SDS011;3778;42.572;23.426;2024-02-26T03:18:51;13.55;;;8.00;;
7473;SDS011;3778;42.572;23.426;2024-02-26T03:21:17;19.85;;;6.53;;
7473;SDS011;3778;42.572;23.426;2024-02-26T03:23:43;16.83;;;6.95;;
7473;SDS011;3778;42.572;23.426;2024-02-26T03:26:08;14.05;;;6.88;;
7473;SDS011;3778;42.572;23.426;2024-02-26T03:28:38;14.10;;;6.95;;
7473;SDS011;3778;42.572;23.426;2024-02-26T03:31:04;15.82;;;7.10;;
7473;SDS011;3778;42.572;23.426;2024-02-26T03:33:29;12.00;;;6.68;;
7473;SDS011;3778;42.572;23.426;2024-02-26T03:35:54;9.93;;;6.30;;
7473;SDS011;3778;42.572;23.426;2024-02-26T03:38:21;12.77;;;6.57;;
7473;SDS011;3778;42.572;23.426;2024-02-26T03:40:47;9.52;;;5.22;;
7473;SDS011;3778;42.572;23.426;2024-02-26T03:43:12;11.40;;;5.32;;
7473;SDS011;3778;42.572;23.426;2024-02-26T03:45:38;13.05;;;6.10;;
7473;SDS011;3778;42.572;23.426;2024-02-26T03:48:03;14.93;;;6.38;;
7473;SDS011;3778;42.572;23.426;2024-02-26T03:50:29;14.55;;;6.65;;
7473;SDS011;3778;42.572;23.426;2024-02-26T03:52:54;10.85;;;5.82;;
7473;SDS011;3778;42.572;23.426;2024-02-26T03:55:20;12.05;;;5.22;;
7473;SDS011;3778;42.572;23.426;2024-02-26T03:57:50;14.43;;;7.13;;
7473;SDS011;3778;42.572;23.426;2024-02-26T04:00:16;12.38;;;5.80;;
7473;SDS011;3778;42.572;23.426;2024-02-26T04:02:41;9.57;;;5.45;;
7473;SDS011;3778;42.572;23.426;2024-02-26T04:05:09;10.80;;;6.20;;
7473;SDS011;3778;42.572;23.426;2024-02-26T04:07:35;17.10;;;7.82;;
7473;SDS011;3778;42.572;23.426;2024-02-26T04:10:00;12.07;;;5.82;;
7473;SDS011;3778;42.572;23.426;2024-02-26T04:12:28;11.48;;;6.35;;
7473;SDS011;3778;42.572;23.426;2024-02-26T04:14:54;12.70;;;6.82;;
7473;SDS011;3778;42.572;23.426;2024-02-26T04:17:19;12.05;;;4.97;;
7473;SDS011;3778;42.572;23.426;2024-02-26T04:19:45;13.65;;;6.10;;
7473;SDS011;3778;42.572;23.426;2024-02-26T04:22:10;13.23;;;7.38;;
7473;SDS011;3778;42.572;23.426;2024-02-26T04:24:36;9.50;;;5.97;;
7473;SDS011;3778;42.572;23.426;2024-02-26T04:27:01;16.50;;;6.53;;
7473;SDS011;3778;42.572;23.426;2024-02-26T04:29:27;11.25;;;5.05;;
7473;SDS011;3778;42.572;23.426;2024-02-26T04:31:52;8.68;;;5.05;;
7473;SDS011;3778;42.572;23.426;2024-02-26T04:34:17;12.50;;;5.75;;
7473;SDS011;3778;42.572;23.426;2024-02-26T04:36:43;12.40;;;6.55;;
7473;SDS011;3778;42.572;23.426;2024-02-26T04:39:09;10.95;;;5.80;;
7473;SDS011;3778;42.572;23.426;2024-02-26T04:41:35;12.05;;;7.28;;
7473;SDS011;3778;42.572;23.426;2024-02-26T04:44:00;18.15;;;7.00;;
7473;SDS011;3778;42.572;23.426;2024-02-26T04:46:26;14.82;;;6.65;;
7473;SDS011;3778;42.572;23.426;2024-02-26T04:48:53;9.23;;;5.53;;
7473;SDS011;3778;42.572;23.426;2024-02-26T04:51:18;16.90;;;5.82;;
7473;SDS011;3778;42.572;23.426;2024-02-26T04:53:44;12.73;;;7.22;;
7473;SDS011;3778;42.572;23.426;2024-02-26T04:56:09;17.10;;;5.97;;
7473;SDS011;3778;42.572;23.426;2024-02-26T04:58:35;13.55;;;7.20;;
7473;SDS011;3778;42.572;23.426;2024-02-26T05:01:00;12.52;;;6.45;;
7473;SDS011;3778;42.572;23.426;2024-02-26T05:03:25;13.70;;;6.53;;
7473;SDS011;3778;42.572;23.426;2024-02-26T05:05:51;14.55;;;7.35;;
7473;SDS011;3778;42.572;23.426;2024-02-26T05:08:16;11.23;;;5.93;;
7473;SDS011;3778;42.572;23.426;2024-02-26T05:10:42;10.85;;;5.85;;
7473;SDS011;3778;42.572;23.426;2024-02-26T05:13:08;12.02;;;6.25;;
7473;SDS011;3778;42.572;23.426;2024-02-26T05:15:34;12.05;;;6.53;;
7473;SDS011;3778;42.572;23.426;2024-02-26T05:17:59;11.82;;;6.15;;
7473;SDS011;3778;42.572;23.426;2024-02-26T05:20:25;11.93;;;6.25;;
7473;SDS011;3778;42.572;23.426;2024-02-26T05:22:50;13.07;;;6.05;;
7473;SDS011;3778;42.572;23.426;2024-02-26T05:25:17;12.32;;;6.03;;
7473;SDS011;3778;42.572;23.426;2024-02-26T05:27:43;12.52;;;6.40;;
7473;SDS011;3778;42.572;23.426;2024-02-26T05:30:09;10.80;;;6.22;;
7473;SDS011;3778;42.572;23.426;2024-02-26T05:32:35;14.00;;;7.38;;
7473;SDS011;3778;42.572;23.426;2024-02-26T05:35:00;9.65;;;5.35;;
7473;SDS011;3778;42.572;23.426;2024-02-26T05:37:28;10.15;;;5.32;;
7473;SDS011;3778;42.572;23.426;2024-02-26T05:39:54;11.48;;;6.18;;
7473;SDS011;3778;42.572;23.426;2024-02-26T05:42:19;10.57;;;5.13;;
7473;SDS011;3778;42.572;23.426;2024-02-26T05:44:45;17.63;;;6.88;;
7473;SDS011;3778;42.572;23.426;2024-02-26T05:47:10;14.45;;;6.53;;
7473;SDS011;3778;42.572;23.426;2024-02-26T05:49:36;11.77;;;6.85;;
7473;SDS011;3778;42.572;23.426;2024-02-26T05:52:01;16.98;;;8.55;;
7473;SDS011;3778;42.572;23.426;2024-02-26T05:54:27;15.57;;;7.93;;
7473;SDS011;3778;42.572;23.426;2024-02-26T05:56:52;14.98;;;7.05;;
7473;SDS011;3778;42.572;23.426;2024-02-26T05:59:18;15.02;;;7.82;;
7473;SDS011;3778;42.572;23.426;2024-02-26T06:01:43;13.13;;;6.72;;
7473;SDS011;3778;42.572;23.426;2024-02-26T06:04:09;11.45;;;6.90;;
7473;SDS011;3778;42.572;23.426;2024-02-26T06:06:34;12.15;;;5.90;;
7473;SDS011;3778;42.572;23.426;2024-02-26T06:08:59;13.43;;;7.07;;
7473;SDS011;3778;42.572;23.426;2024-02-26T06:11:25;16.13;;;7.93;;
7473;SDS011;3778;42.572;23.426;2024-02-26T06:13:50;11.05;;;6.82;;
7473;SDS011;3778;42.572;23.426;2024-02-26T06:16:15;13.52;;;7.03;;
7473;SDS011;3778;42.572;23.426;2024-02-26T06:18:41;14.48;;;7.07;;
7473;SDS011;3778;42.572;23.426;2024-02-26T06:21:10;14.45;;;7.47;;
7473;SDS011;3778;42.572;23.426;2024-02-26T06:23:36;8.07;;;4.78;;
7473;SDS011;3778;42.572;23.426;2024-02-26T06:26:02;15.50;;;6.40;;
7473;SDS011;3778;42.572;23.426;2024-02-26T06:28:28;12.43;;;7.18;;
7473;SDS011;3778;42.572;23.426;2024-02-26T06:30:55;14.57;;;7.88;;
7473;SDS011;3778;42.572;23.426;2024-02-26T06:33:21;12.23;;;6.93;;
7473;SDS011;3778;42.572;23.426;2024-02-26T06:35:46;13.02;;;6.88;;
7473;SDS011;3778;42.572;23.426;2024-02-26T06:38:12;12.77;;;7.00;;
7473;SDS011;3778;42.572;23.426;2024-02-26T06:40:38;12.68;;;7.03;;
7473;SDS011;3778;42.572;23.426;2024-02-26T06:43:04;12.48;;;6.97;;
7473;SDS011;3778;42.572;23.426;2024-02-26T06:45:29;12.85;;;6.57;;
7473;SDS011;3778;42.572;23.426;2024-02-26T06:47:55;14.95;;;6.65;;
7473;SDS011;3778;42.572;23.426;2024-02-26T06:50:21;11.18;;;5.80;;
7473;SDS011;3778;42.572;23.426;2024-02-26T06:52:46;15.15;;;6.07;;
7473;SDS011;3778;42.572;23.426;2024-02-26T06:55:12;10.50;;;6.30;;
7473;SDS011;3778;42.572;23.426;2024-02-26T06:57:38;13.43;;;6.53;;
7473;SDS011;3778;42.572;23.426;2024-02-26T07:00:04;11.57;;;6.05;;
7473;SDS011;3778;42.572;23.426;2024-02-26T07:02:30;11.32;;;6.70;;
7473;SDS011;3778;42.572;23.426;2024-02-26T07:04:55;11.82;;;6.18;;
7473;SDS011;3778;42.572;23.426;2024-02-26T07:07:23;11.93;;;7.05;;
7473;SDS011;3778;42.572;23.426;2024-02-26T07:09:48;12.70;;;6.93;;
7473;SDS011;3778;42.572;23.426;2024-02-26T07:12:14;9.73;;;4.88;;
7473;SDS011;3778;42.572;23.426;2024-02-26T07:14:41;13.27;;;7.20;;
7473;SDS011;3778;42.572;23.426;2024-02-26T07:17:06;12.05;;;5.65;;
7473;SDS011;3778;42.572;23.426;2024-02-26T07:19:33;11.43;;;6.13;;
7473;SDS011;3778;42.572;23.426;2024-02-26T07:21:59;12.50;;;5.57;;
7473;SDS011;3778;42.572;23.426;2024-02-26T07:24:26;11.52;;;5.75;;
7473;SDS011;3778;42.572;23.426;2024-02-26T07:26:51;8.18;;;4.43;;
7473;SDS011;3778;42.572;23.426;2024-02-26T07:29:19;11.48;;;5.65;;
7473;SDS011;3778;42.572;23.426;2024-02-26T07:31:45;12.88;;;6.45;;
7473;SDS011;3778;42.572;23.426;2024-02-26T07:34:10;10.25;;;5.32;;
7473;SDS011;3778;42.572;23.426;2024-02-26T07:36:35;13.05;;;6.68;;
7473;SDS011;3778;42.572;23.426;2024-02-26T07:39:01;10.93;;;5.55;;
7473;SDS011;3778;42.572;23.426;2024-02-26T07:41:26;13.32;;;6.32;;
7473;SDS011;3778;42.572;23.426;2024-02-26T07:43:52;10.15;;;5.97;;
7473;SDS011;3778;42.572;23.426;2024-02-26T07:46:17;8.18;;;5.03;;
7473;SDS011;3778;42.572;23.426;2024-02-26T07:48:43;9.45;;;5.28;;
7473;SDS011;3778;42.572;23.426;2024-02-26T07:51:09;10.65;;;6.13;;
7473;SDS011;3778;42.572;23.426;2024-02-26T07:53:37;16.25;;;5.80;;
7473;SDS011;3778;42.572;23.426;2024-02-26T07:56:02;9.60;;;5.25;;
7473;SDS011;3778;42.572;23.426;2024-02-26T07:58:28;13.75;;;5.85;;
7473;SDS011;3778;42.572;23.426;2024-02-26T08:00:53;11.75;;;6.07;;
7473;SDS011;3778;42.572;23.426;2024-02-26T08:03:19;9.27;;;5.57;;
7473;SDS011;3778;42.572;23.426;2024-02-26T08:05:44;9.32;;;4.93;;
7473;SDS011;3778;42.572;23.426;2024-02-26T08:08:09;12.00;;;5.40;;
7473;SDS011;3778;42.572;23.426;2024-02-26T08:10:35;8.65;;;4.78;;
7473;SDS011;3778;42.572;23.426;2024-02-26T08:13:00;8.65;;;4.85;;
7473;SDS011;3778;42.572;23.426;2024-02-26T08:15:33;10.30;;;5.32;;
7473;SDS011;3778;42.572;23.426;2024-02-26T08:18:00;9.07;;;4.63;;
7473;SDS011;3778;42.572;23.426;2024-02-26T08:20:28;9.20;;;5.53;;
7473;SDS011;3778;42.572;23.426;2024-02-26T08:22:54;10.65;;;4.53;;
7473;SDS011;3778;42.572;23.426;2024-02-26T08:25:19;9.93;;;4.75;;
7473;SDS011;3778;42.572;23.426;2024-02-26T08:27:44;7.70;;;4.70;;
7473;SDS011;3778;42.572;23.426;2024-02-26T08:30:10;7.40;;;4.78;;
7473;SDS011;3778;42.572;23.426;2024-02-26T08:32:38;9.20;;;5.05;;
7473;SDS011;3778;42.572;23.426;2024-02-26T08:35:04;8.48;;;4.75;;
7473;SDS011;3778;42.572;23.426;2024-02-26T08:37:30;8.90;;;4.57;;
7473;SDS011;3778;42.572;23.426;2024-02-26T08:39:55;10.02;;;5.03;;
7473;SDS011;3778;42.572;23.426;2024-02-26T08:42:20;10.68;;;5.15;;
7473;SDS011;3778;42.572;23.426;2024-02-26T08:44:46;8.85;;;4.35;;
7473;SDS011;3778;42.572;23.426;2024-02-26T08:47:11;12.10;;;4.90;;
7473;SDS011;3778;42.572;23.426;2024-02-26T08:49:41;10.38;;;5.32;;
7473;SDS011;3778;42.572;23.426;2024-02-26T08:52:07;9.63;;;5.65;;
7473;SDS011;3778;42.572;23.426;2024-02-26T08:54:33;10.02;;;5.32;;
7473;SDS011;3778;42.572;23.426;2024-02-26T08:56:58;9.68;;;5.32;;
7473;SDS011;3778;42.572;23.426;2024-02-26T08:59:23;9.95;;;4.85;;
7473;SDS011;3778;42.572;23.426;2024-02-26T09:01:49;10.50;;;4.85;;
7473;SDS011;3778;42.572;23.426;2024-02-26T09:04:14;8.45;;;4.47;;
7473;SDS011;3778;42.572;23.426;2024-02-26T09:06:40;9.90;;;4.75;;
7473;SDS011;3778;42.572;23.426;2024-02-26T09:09:05;9.80;;;4.63;;
7473;SDS011;3778;42.572;23.426;2024-02-26T09:11:30;7.40;;;4.45;;
7473;SDS011;3778;42.572;23.426;2024-02-26T09:13:56;6.07;;;4.57;;
7473;SDS011;3778;42.572;23.426;2024-02-26T09:16:22;8.07;;;3.65;;
7473;SDS011;3778;42.572;23.426;2024-02-26T09:18:47;6.78;;;4.18;;
7473;SDS011;3778;42.572;23.426;2024-02-26T09:21:12;7.25;;;4.22;;
7473;SDS011;3778;42.572;23.426;2024-02-26T09:23:38;9.23;;;5.00;;
7473;SDS011;3778;42.572;23.426;2024-02-26T09:26:05;8.02;;;5.15;;
7473;SDS011;3778;42.572;23.426;2024-02-26T09:28:31;7.65;;;4.53;;
7473;SDS011;3778;42.572;23.426;2024-02-26T09:31:02;7.57;;;4.88;;
7473;SDS011;3778;42.572;23.426;2024-02-26T09:33:28;7.82;;;4.90;;
7473;SDS011;3778;42.572;23.426;2024-02-26T09:35:54;7.07;;;4.57;;
7473;SDS011;3778;42.572;23.426;2024-02-26T09:38:19;7.00;;;4.78;;
7473;SDS011;3778;42.572;23.426;2024-02-26T09:40:45;11.40;;;5.18;;
7473;SDS011;3778;42.572;23.426;2024-02-26T09:43:10;8.45;;;4.80;;
7473;SDS011;3778;42.572;23.426;2024-02-26T09:45:40;6.32;;;4.40;;
7473;SDS011;3778;42.572;23.426;2024-02-26T09:48:06;6.93;;;4.90;;
7473;SDS011;3778;42.572;23.426;2024-02-26T09:50:33;9.23;;;4.88;;
7473;SDS011;3778;42.572;23.426;2024-02-26T09:52:59;7.03;;;4.22;;
7473;SDS011;3778;42.572;23.426;2024-02-26T09:55:27;7.15;;;4.47;;
7473;SDS011;3778;42.572;23.426;2024-02-26T09:57:53;6.78;;;4.13;;
7473;SDS011;3778;42.572;23.426;2024-02-26T10:00:19;6.82;;;4.80;;
7473;SDS011;3778;42.572;23.426;2024-02-26T10:02:46;7.68;;;4.70;;
7473;SDS011;3778;42.572;23.426;2024-02-26T10:05:18;6.70;;;4.43;;
7473;SDS011;3778;42.572;23.426;2024-02-26T10:07:44;7.53;;;4.63;;
7473;SDS011;3778;42.572;23.426;2024-02-26T10:10:10;5.82;;;4.13;;
7473;SDS011;3778;42.572;23.426;2024-02-26T10:12:36;7.57;;;4.90;;
7473;SDS011;3778;42.572;23.426;2024-02-26T10:15:01;10.23;;;4.93;;
7473;SDS011;3778;42.572;23.426;2024-02-26T10:17:27;9.05;;;4.90;;
7473;SDS011;3778;42.572;23.426;2024-02-26T10:19:53;6.25;;;4.40;;
7473;SDS011;3778;42.572;23.426;2024-02-26T10:22:21;8.05;;;4.78;;
7473;SDS011;3778;42.572;23.426;2024-02-26T10:24:47;6.30;;;4.57;;
7473;SDS011;3778;42.572;23.426;2024-02-26T10:27:12;15.00;;;4.80;;
7473;SDS011;3778;42.572;23.426;2024-02-26T10:29:38;8.25;;;4.65;;
7473;SDS011;3778;42.572;23.426;2024-02-26T10:32:03;6.28;;;4.57;;
7473;SDS011;3778;42.572;23.426;2024-02-26T10:34:29;6.97;;;4.97;;
7473;SDS011;3778;42.572;23.426;2024-02-26T10:36:56;6.57;;;4.20;;
7473;SDS011;3778;42.572;23.426;2024-02-26T10:39:21;8.27;;;4.50;;
7473;SDS011;3778;42.572;23.426;2024-02-26T10:41:47;9.00;;;4.50;;
7473;SDS011;3778;42.572;23.426;2024-02-26T10:44:12;8.23;;;4.82;;
7473;SDS011;3778;42.572;23.426;2024-02-26T10:46:40;7.80;;;3.97;;
7473;SDS011;3778;42.572;23.426;2024-02-26T10:49:08;7.95;;;4.97;;
7473;SDS011;3778;42.572;23.426;2024-02-26T10:51:38;5.78;;;4.35;;
7473;SDS011;3778;42.572;23.426;2024-02-26T10:54:08;8.00;;;4.20;;
7473;SDS011;3778;42.572;23.426;2024-02-26T10:56:37;8.60;;;4.43;;
7473;SDS011;3778;42.572;23.426;2024-02-26T10:59:08;6.88;;;4.40;;
7473;SDS011;3778;42.572;23.426;2024-02-26T11:01:35;6.60;;;3.88;;
7473;SDS011;3778;42.572;23.426;2024-02-26T11:04:03;10.70;;;4.70;;
7473;SDS011;3778;42.572;23.426;2024-02-26T11:06:29;11.23;;;4.38;;
7473;SDS011;3778;42.572;23.426;2024-02-26T11:08:56;5.40;;;4.18;;
7473;SDS011;3778;42.572;23.426;2024-02-26T11:11:23;7.78;;;4.38;;
7473;SDS011;3778;42.572;23.426;2024-02-26T11:13:50;5.47;;;3.40;;
7473;SDS011;3778;42.572;23.426;2024-02-26T11:16:18;4.80;;;4.03;;
7473;SDS011;3778;42.572;23.426;2024-02-26T11:18:45;5.45;;;3.50;;
7473;SDS011;3778;42.572;23.426;2024-02-26T11:21:13;6.43;;;3.80;;
7473;SDS011;3778;42.572;23.426;2024-02-26T11:23:41;6.88;;;4.50;;
7473;SDS011;3778;42.572;23.426;2024-02-26T11:26:07;5.80;;;3.70;;
7473;SDS011;3778;42.572;23.426;2024-02-26T11:28:35;5.40;;;3.47;;
7473;SDS011;3778;42.572;23.426;2024-02-26T11:31:03;6.47;;;4.00;;
7473;SDS011;3778;42.572;23.426;2024-02-26T11:33:30;5.30;;;3.17;;
7473;SDS011;3778;42.572;23.426;2024-02-26T11:35:55;5.88;;;3.72;;
7473;SDS011;3778;42.572;23.426;2024-02-26T11:38:21;6.78;;;3.30;;
7473;SDS011;3778;42.572;23.426;2024-02-26T11:40:49;6.72;;;3.50;;
7473;SDS011;3778;42.572;23.426;2024-02-26T11:43:15;5.82;;;4.28;;
7473;SDS011;3778;42.572;23.426;2024-02-26T11:48:12;5.63;;;3.75;;
7473;SDS011;3778;42.572;23.426;2024-02-26T11:50:51;8.13;;;3.55;;
7473;SDS011;3778;42.572;23.426;2024-02-26T11:55:47;5.78;;;3.42;;
7473;SDS011;3778;42.572;23.426;2024-02-26T11:58:14;6.80;;;3.53;;
7473;SDS011;3778;42.572;23.426;2024-02-26T12:00:40;8.88;;;3.67;;
7473;SDS011;3778;42.572;23.426;2024-02-26T12:03:06;8.52;;;3.75;;
7473;SDS011;3778;42.572;23.426;2024-02-26T12:05:33;5.97;;;3.33;;
7473;SDS011;3778;42.572;23.426;2024-02-26T12:08:02;4.85;;;3.17;;
7473;SDS011;3778;42.572;23.426;2024-02-26T12:10:31;4.55;;;3.10;;
7473;SDS011;3778;42.572;23.426;2024-02-26T12:15:42;6.28;;;3.08;;
7473;SDS011;3778;42.572;23.426;2024-02-26T12:18:10;5.50;;;2.83;;
7473;SDS011;3778;42.572;23.426;2024-02-26T12:20:40;5.65;;;3.38;;
7473;SDS011;3778;42.572;23.426;2024-02-26T12:23:06;4.35;;;3.28;;
7473;SDS011;3778;42.572;23.426;2024-02-26T12:25:32;7.15;;;3.45;;
7473;SDS011;3778;42.572;23.426;2024-02-26T12:27:58;4.32;;;2.92;;
7473;SDS011;3778;42.572;23.426;2024-02-26T12:30:24;4.57;;;2.80;;
7473;SDS011;3778;42.572;23.426;2024-02-26T12:32:51;6.13;;;2.97;;
7473;SDS011;3778;42.572;23.426;2024-02-26T12:35:17;8.15;;;3.00;;
7473;SDS011;3778;42.572;23.426;2024-02-26T12:37:43;4.18;;;2.42;;
7473;SDS011;3778;42.572;23.426;2024-02-26T12:40:09;4.05;;;2.33;;
7473;SDS011;3778;42.572;23.426;2024-02-26T12:42:36;6.15;;;3.20;;
7473;SDS011;3778;42.572;23.426;2024-02-26T12:45:08;3.33;;;2.67;;
7473;SDS011;3778;42.572;23.426;2024-02-26T12:47:39;5.03;;;2.95;;
7473;SDS011;3778;42.572;23.426;2024-02-26T12:50:06;5.43;;;2.85;;
7473;SDS011;3778;42.572;23.426;2024-02-26T12:52:36;3.10;;;2.72;;
7473;SDS011;3778;42.572;23.426;2024-02-26T12:55:04;8.32;;;3.10;;
7473;SDS011;3778;42.572;23.426;2024-02-26T12:57:34;7.65;;;2.60;;
7473;SDS011;3778;42.572;23.426;2024-02-26T13:00:02;3.83;;;2.40;;
7473;SDS011;3778;42.572;23.426;2024-02-26T13:02:29;3.33;;;2.42;;
7473;SDS011;3778;42.572;23.426;2024-02-26T13:04:56;5.22;;;2.53;;
7473;SDS011;3778;42.572;23.426;2024-02-26T13:07:22;5.57;;;2.72;;
7473;SDS011;3778;42.572;23.426;2024-02-26T13:09:48;6.65;;;2.90;;
7473;SDS011;3778;42.572;23.426;2024-02-26T13:12:13;5.13;;;2.50;;
7473;SDS011;3778;42.572;23.426;2024-02-26T13:14:39;5.15;;;2.35;;
7473;SDS011;3778;42.572;23.426;2024-02-26T13:17:05;4.80;;;2.80;;
7473;SDS011;3778;42.572;23.426;2024-02-26T13:19:31;5.07;;;3.08;;
7473;SDS011;3778;42.572;23.426;2024-02-26T13:22:02;3.22;;;2.42;;
7473;SDS011;3778;42.572;23.426;2024-02-26T13:24:35;4.55;;;2.90;;
7473;SDS011;3778;42.572;23.426;2024-02-26T13:29:29;3.65;;;2.35;;
7473;SDS011;3778;42.572;23.426;2024-02-26T13:31:55;5.28;;;2.35;;
7473;SDS011;3778;42.572;23.426;2024-02-26T13:34:23;4.55;;;2.45;;
7473;SDS011;3778;42.572;23.426;2024-02-26T13:36:50;3.80;;;2.17;;
7473;SDS011;3778;42.572;23.426;2024-02-26T13:39:21;4.40;;;1.98;;
7473;SDS011;3778;42.572;23.426;2024-02-26T13:41:48;3.25;;;2.05;;
7473;SDS011;3778;42.572;23.426;2024-02-26T13:44:13;7.43;;;2.43;;
7473;SDS011;3778;42.572;23.426;2024-02-26T13:46:39;4.32;;;2.47;;
7473;SDS011;3778;42.572;23.426;2024-02-26T13:49:08;4.55;;;2.70;;
7473;SDS011;3778;42.572;23.426;2024-02-26T13:51:34;2.95;;;2.35;;
7473;SDS011;3778;42.572;23.426;2024-02-26T13:54:00;5.90;;;2.30;;
7473;SDS011;3778;42.572;23.426;2024-02-26T13:56:26;5.95;;;2.75;;
7473;SDS011;3778;42.572;23.426;2024-02-26T13:58:51;6.05;;;2.22;;
7473;SDS011;3778;42.572;23.426;2024-02-26T14:01:17;5.22;;;2.55;;
7473;SDS011;3778;42.572;23.426;2024-02-26T14:03:42;4.75;;;2.35;;
7473;SDS011;3778;42.572;23.426;2024-02-26T14:06:07;4.07;;;2.50;;
7473;SDS011;3778;42.572;23.426;2024-02-26T14:08:33;3.78;;;2.70;;
7473;SDS011;3778;42.572;23.426;2024-02-26T14:10:58;4.53;;;2.47;;
7473;SDS011;3778;42.572;23.426;2024-02-26T14:13:25;4.40;;;2.42;;
7473;SDS011;3778;42.572;23.426;2024-02-26T14:15:50;8.40;;;2.40;;
7473;SDS011;3778;42.572;23.426;2024-02-26T14:18:16;4.60;;;2.22;;
7473;SDS011;3778;42.572;23.426;2024-02-26T14:20:41;4.05;;;2.03;;
7473;SDS011;3778;42.572;23.426;2024-02-26T14:23:06;3.97;;;2.60;;
7473;SDS011;3778;42.572;23.426;2024-02-26T14:25:33;4.68;;;2.35;;
7473;SDS011;3778;42.572;23.426;2024-02-26T14:27:58;3.60;;;2.22;;
7473;SDS011;3778;42.572;23.426;2024-02-26T14:30:24;5.95;;;2.40;;
7473;SDS011;3778;42.572;23.426;2024-02-26T14:32:50;6.97;;;2.53;;
7473;SDS011;3778;42.572;23.426;2024-02-26T14:35:16;5.00;;;2.00;;
7473;SDS011;3778;42.572;23.426;2024-02-26T14:37:42;5.10;;;2.25;;
7473;SDS011;3778;42.572;23.426;2024-02-26T14:40:08;2.92;;;2.00;;
7473;SDS011;3778;42.572;23.426;2024-02-26T14:42:34;4.28;;;2.10;;
7473;SDS011;3778;42.572;23.426;2024-02-26T14:44:59;3.80;;;2.20;;
7473;SDS011;3778;42.572;23.426;2024-02-26T14:47:25;4.13;;;2.40;;
7473;SDS011;3778;42.572;23.426;2024-02-26T14:49:50;5.43;;;2.50;;
7473;SDS011;3778;42.572;23.426;2024-02-26T14:52:16;4.10;;;2.22;;
7473;SDS011;3778;42.572;23.426;2024-02-26T14:54:42;5.88;;;2.28;;
7473;SDS011;3778;42.572;23.426;2024-02-26T14:57:08;4.22;;;2.40;;
7473;SDS011;3778;42.572;23.426;2024-02-26T14:59:33;5.15;;;2.20;;